sensor_id;sensor_type;location;lat;lon;timestamp;P1;durP1;ratioP1;P2;durP2;ratioP2
9420;SDS011;4749;51.398;5.466;2022-09-09T00:05:04;2.58;;;1.00;;
9420;SDS011;4749;51.398;5.466;2022-09-09T00:07:52;2.55;;;1.17;;
9420;SDS011;4749;51.398;5.466;2022-09-09T00:10:28;2.30;;;1.30;;
9420;SDS011;4749;51.398;5.466;2022-09-09T00:16:17;1.63;;;0.88;;
9420;SDS011;4749;51.398;5.466;2022-09-09T00:21:37;1.80;;;1.02;;
9420;SDS011;4749;51.398;5.466;2022-09-09T00:24:23;3.30;;;1.48;;
9420;SDS011;4749;51.398;5.466;2022-09-09T00:27:06;2.00;;;1.20;;
9420;SDS011;4749;51.398;5.466;2022-09-09T00:29:43;2.63;;;1.17;;
9420;SDS011;4749;51.398;5.466;2022-09-09T00:32:22;2.58;;;0.90;;
9420;SDS011;4749;51.398;5.466;2022-09-09T00:34:55;2.50;;;1.00;;
9420;SDS011;4749;51.398;5.466;2022-09-09T00:37:46;2.17;;;1.30;;
9420;SDS011;4749;51.398;5.466;2022-09-09T00:40:50;1.77;;;0.93;;
9420;SDS011;4749;51.398;5.466;2022-09-09T00:52:03;2.30;;;1.20;;
9420;SDS011;4749;51.398;5.466;2022-09-09T00:57:51;2.05;;;1.10;;
9420;SDS011;4749;51.398;5.466;2022-09-09T01:00:23;1.77;;;1.20;;
9420;SDS011;4749;51.398;5.466;2022-09-09T01:02:59;1.83;;;1.30;;
9420;SDS011;4749;51.398;5.466;2022-09-09T01:11:21;2.15;;;1.30;;
9420;SDS011;4749;51.398;5.466;2022-09-09T01:14:11;3.28;;;1.58;;
9420;SDS011;4749;51.398;5.466;2022-09-09T01:16:53;2.13;;;1.20;;
9420;SDS011;4749;51.398;5.466;2022-09-09T01:19:57;2.47;;;1.50;;
9420;SDS011;4749;51.398;5.466;2022-09-09T01:25:26;2.60;;;1.52;;
9420;SDS011;4749;51.398;5.466;2022-09-09T01:27:57;4.38;;;1.30;;
9420;SDS011;4749;51.398;5.466;2022-09-09T01:30:28;3.60;;;1.40;;
9420;SDS011;4749;51.398;5.466;2022-09-09T01:32:57;3.80;;;1.55;;
9420;SDS011;4749;51.398;5.466;2022-09-09T01:35:32;3.88;;;1.35;;
9420;SDS011;4749;51.398;5.466;2022-09-09T01:38:11;4.00;;;1.50;;
9420;SDS011;4749;51.398;5.466;2022-09-09T01:40:39;1.10;;;1.00;;
9420;SDS011;4749;51.398;5.466;2022-09-09T01:43:06;3.22;;;1.58;;
9420;SDS011;4749;51.398;5.466;2022-09-09T01:45:33;3.72;;;1.23;;
9420;SDS011;4749;51.398;5.466;2022-09-09T01:48:01;4.75;;;1.40;;
9420;SDS011;4749;51.398;5.466;2022-09-09T01:50:29;3.70;;;1.95;;
9420;SDS011;4749;51.398;5.466;2022-09-09T01:52:57;2.55;;;1.23;;
9420;SDS011;4749;51.398;5.466;2022-09-09T01:55:37;2.28;;;1.17;;
9420;SDS011;4749;51.398;5.466;2022-09-09T02:01:32;4.28;;;1.50;;
9420;SDS011;4749;51.398;5.466;2022-09-09T02:04:43;1.58;;;1.08;;
9420;SDS011;4749;51.398;5.466;2022-09-09T02:09:55;2.65;;;1.40;;
9420;SDS011;4749;51.398;5.466;2022-09-09T02:12:37;1.48;;;1.05;;
9420;SDS011;4749;51.398;5.466;2022-09-09T02:15:32;3.10;;;1.48;;
9420;SDS011;4749;51.398;5.466;2022-09-09T02:18:17;2.42;;;0.98;;
9420;SDS011;4749;51.398;5.466;2022-09-09T02:21:01;1.55;;;1.02;;
9420;SDS011;4749;51.398;5.466;2022-09-09T02:23:29;1.77;;;1.00;;
9420;SDS011;4749;51.398;5.466;2022-09-09T02:25:58;4.75;;;1.52;;
9420;SDS011;4749;51.398;5.466;2022-09-09T02:28:28;3.15;;;1.13;;
9420;SDS011;4749;51.398;5.466;2022-09-09T02:30:59;1.85;;;1.13;;
9420;SDS011;4749;51.398;5.466;2022-09-09T02:33:28;4.63;;;1.23;;
9420;SDS011;4749;51.398;5.466;2022-09-09T02:36:03;4.68;;;1.27;;
9420;SDS011;4749;51.398;5.466;2022-09-09T02:38:36;7.68;;;1.55;;
9420;SDS011;4749;51.398;5.466;2022-09-09T02:41:12;7.90;;;1.42;;
9420;SDS011;4749;51.398;5.466;2022-09-09T02:43:39;4.22;;;1.35;;
9420;SDS011;4749;51.398;5.466;2022-09-09T02:49:10;4.63;;;1.40;;
9420;SDS011;4749;51.398;5.466;2022-09-09T02:51:51;3.60;;;1.65;;
9420;SDS011;4749;51.398;5.466;2022-09-09T02:54:42;5.63;;;2.20;;
9420;SDS011;4749;51.398;5.466;2022-09-09T02:57:17;3.90;;;1.30;;
9420;SDS011;4749;51.398;5.466;2022-09-09T02:59:52;3.72;;;1.30;;
9420;SDS011;4749;51.398;5.466;2022-09-09T03:02:19;7.65;;;1.65;;
9420;SDS011;4749;51.398;5.466;2022-09-09T03:04:47;5.70;;;1.85;;
9420;SDS011;4749;51.398;5.466;2022-09-09T03:07:18;6.93;;;1.73;;
9420;SDS011;4749;51.398;5.466;2022-09-09T03:09:45;3.35;;;1.80;;
9420;SDS011;4749;51.398;5.466;2022-09-09T03:12:13;3.10;;;1.48;;
9420;SDS011;4749;51.398;5.466;2022-09-09T03:14:40;4.97;;;1.75;;
9420;SDS011;4749;51.398;5.466;2022-09-09T03:17:07;5.93;;;1.58;;
9420;SDS011;4749;51.398;5.466;2022-09-09T03:19:35;4.53;;;1.48;;
9420;SDS011;4749;51.398;5.466;2022-09-09T03:22:03;5.47;;;1.67;;
9420;SDS011;4749;51.398;5.466;2022-09-09T03:24:30;5.70;;;1.70;;
9420;SDS011;4749;51.398;5.466;2022-09-09T03:26:57;3.90;;;1.63;;
9420;SDS011;4749;51.398;5.466;2022-09-09T03:29:24;7.00;;;1.80;;
9420;SDS011;4749;51.398;5.466;2022-09-09T03:31:51;6.60;;;1.52;;
9420;SDS011;4749;51.398;5.466;2022-09-09T03:34:18;3.60;;;1.48;;
9420;SDS011;4749;51.398;5.466;2022-09-09T03:36:45;4.57;;;1.70;;
9420;SDS011;4749;51.398;5.466;2022-09-09T03:39:14;3.42;;;1.40;;
9420;SDS011;4749;51.398;5.466;2022-09-09T03:41:42;3.63;;;1.60;;
9420;SDS011;4749;51.398;5.466;2022-09-09T03:44:11;4.55;;;1.65;;
9420;SDS011;4749;51.398;5.466;2022-09-09T03:46:38;5.43;;;1.90;;
9420;SDS011;4749;51.398;5.466;2022-09-09T03:49:05;5.85;;;1.75;;
9420;SDS011;4749;51.398;5.466;2022-09-09T03:51:32;7.97;;;2.00;;
9420;SDS011;4749;51.398;5.466;2022-09-09T03:54:02;8.18;;;1.75;;
9420;SDS011;4749;51.398;5.466;2022-09-09T03:56:31;4.50;;;2.00;;
9420;SDS011;4749;51.398;5.466;2022-09-09T03:58:58;4.18;;;1.63;;
9420;SDS011;4749;51.398;5.466;2022-09-09T04:01:25;5.20;;;1.92;;
9420;SDS011;4749;51.398;5.466;2022-09-09T04:03:53;2.42;;;1.52;;
9420;SDS011;4749;51.398;5.466;2022-09-09T04:06:21;6.43;;;1.92;;
9420;SDS011;4749;51.398;5.466;2022-09-09T04:08:48;6.80;;;2.05;;
9420;SDS011;4749;51.398;5.466;2022-09-09T04:11:15;4.40;;;1.88;;
9420;SDS011;4749;51.398;5.466;2022-09-09T04:13:42;8.85;;;2.00;;
9420;SDS011;4749;51.398;5.466;2022-09-09T04:16:11;4.57;;;1.83;;
9420;SDS011;4749;51.398;5.466;2022-09-09T04:18:42;6.45;;;1.95;;
9420;SDS011;4749;51.398;5.466;2022-09-09T04:21:09;5.50;;;1.77;;
9420;SDS011;4749;51.398;5.466;2022-09-09T04:23:38;7.22;;;1.95;;
9420;SDS011;4749;51.398;5.466;2022-09-09T04:26:05;5.60;;;1.90;;
9420;SDS011;4749;51.398;5.466;2022-09-09T04:28:34;7.97;;;2.20;;
9420;SDS011;4749;51.398;5.466;2022-09-09T04:31:06;6.70;;;2.20;;
9420;SDS011;4749;51.398;5.466;2022-09-09T04:33:47;9.32;;;2.20;;
9420;SDS011;4749;51.398;5.466;2022-09-09T04:36:15;4.03;;;1.83;;
9420;SDS011;4749;51.398;5.466;2022-09-09T04:38:44;6.53;;;2.47;;
9420;SDS011;4749;51.398;5.466;2022-09-09T04:41:12;5.97;;;2.08;;
9420;SDS011;4749;51.398;5.466;2022-09-09T04:43:39;6.20;;;2.15;;
9420;SDS011;4749;51.398;5.466;2022-09-09T04:46:06;5.03;;;1.75;;
9420;SDS011;4749;51.398;5.466;2022-09-09T04:48:33;7.45;;;2.00;;
9420;SDS011;4749;51.398;5.466;2022-09-09T04:51:02;7.47;;;1.73;;
9420;SDS011;4749;51.398;5.466;2022-09-09T04:53:31;7.22;;;2.08;;
9420;SDS011;4749;51.398;5.466;2022-09-09T04:56:06;8.25;;;2.47;;
9420;SDS011;4749;51.398;5.466;2022-09-09T04:58:39;7.55;;;2.03;;
9420;SDS011;4749;51.398;5.466;2022-09-09T05:01:11;4.82;;;2.63;;
9420;SDS011;4749;51.398;5.466;2022-09-09T05:03:44;4.80;;;1.90;;
9420;SDS011;4749;51.398;5.466;2022-09-09T05:06:13;6.63;;;2.15;;
9420;SDS011;4749;51.398;5.466;2022-09-09T05:08:44;5.45;;;1.98;;
9420;SDS011;4749;51.398;5.466;2022-09-09T05:11:15;6.03;;;1.92;;
9420;SDS011;4749;51.398;5.466;2022-09-09T05:13:52;4.78;;;2.10;;
9420;SDS011;4749;51.398;5.466;2022-09-09T05:16:20;5.97;;;2.28;;
9420;SDS011;4749;51.398;5.466;2022-09-09T05:18:49;6.30;;;2.10;;
9420;SDS011;4749;51.398;5.466;2022-09-09T05:21:20;10.27;;;2.03;;
9420;SDS011;4749;51.398;5.466;2022-09-09T05:23:50;3.80;;;2.03;;
9420;SDS011;4749;51.398;5.466;2022-09-09T05:26:19;6.38;;;2.13;;
9420;SDS011;4749;51.398;5.466;2022-09-09T05:28:48;6.45;;;2.03;;
9420;SDS011;4749;51.398;5.466;2022-09-09T05:31:16;10.73;;;2.28;;
9420;SDS011;4749;51.398;5.466;2022-09-09T05:33:45;8.85;;;2.30;;
9420;SDS011;4749;51.398;5.466;2022-09-09T05:36:18;7.00;;;2.17;;
9420;SDS011;4749;51.398;5.466;2022-09-09T05:38:48;8.32;;;2.05;;
9420;SDS011;4749;51.398;5.466;2022-09-09T05:41:16;5.68;;;1.83;;
9420;SDS011;4749;51.398;5.466;2022-09-09T05:43:44;6.82;;;1.80;;
9420;SDS011;4749;51.398;5.466;2022-09-09T05:46:12;6.97;;;1.77;;
9420;SDS011;4749;51.398;5.466;2022-09-09T05:48:48;5.95;;;1.73;;
9420;SDS011;4749;51.398;5.466;2022-09-09T05:51:18;6.53;;;2.00;;
9420;SDS011;4749;51.398;5.466;2022-09-09T05:53:52;9.32;;;2.20;;
9420;SDS011;4749;51.398;5.466;2022-09-09T05:56:22;6.80;;;1.98;;
9420;SDS011;4749;51.398;5.466;2022-09-09T05:58:52;7.13;;;2.00;;
9420;SDS011;4749;51.398;5.466;2022-09-09T06:01:21;10.57;;;1.83;;
9420;SDS011;4749;51.398;5.466;2022-09-09T06:04:02;8.23;;;2.63;;
9420;SDS011;4749;51.398;5.466;2022-09-09T06:06:30;9.07;;;2.30;;
9420;SDS011;4749;51.398;5.466;2022-09-09T06:09:03;7.28;;;2.28;;
9420;SDS011;4749;51.398;5.466;2022-09-09T06:11:32;6.53;;;1.95;;
9420;SDS011;4749;51.398;5.466;2022-09-09T06:14:02;9.77;;;2.00;;
9420;SDS011;4749;51.398;5.466;2022-09-09T06:16:30;11.18;;;2.28;;
9420;SDS011;4749;51.398;5.466;2022-09-09T06:19:01;8.18;;;1.98;;
9420;SDS011;4749;51.398;5.466;2022-09-09T06:21:30;4.15;;;2.00;;
9420;SDS011;4749;51.398;5.466;2022-09-09T06:24:06;6.63;;;2.08;;
9420;SDS011;4749;51.398;5.466;2022-09-09T06:26:35;10.23;;;2.53;;
9420;SDS011;4749;51.398;5.466;2022-09-09T06:29:06;8.80;;;1.95;;
9420;SDS011;4749;51.398;5.466;2022-09-09T06:31:34;7.68;;;1.83;;
9420;SDS011;4749;51.398;5.466;2022-09-09T06:34:07;6.22;;;1.90;;
9420;SDS011;4749;51.398;5.466;2022-09-09T06:36:36;11.10;;;2.47;;
9420;SDS011;4749;51.398;5.466;2022-09-09T06:39:05;7.82;;;2.13;;
9420;SDS011;4749;51.398;5.466;2022-09-09T06:41:39;6.93;;;2.10;;
9420;SDS011;4749;51.398;5.466;2022-09-09T06:44:09;9.43;;;2.20;;
9420;SDS011;4749;51.398;5.466;2022-09-09T06:46:39;6.47;;;2.15;;
9420;SDS011;4749;51.398;5.466;2022-09-09T06:49:07;6.63;;;2.20;;
9420;SDS011;4749;51.398;5.466;2022-09-09T06:51:36;9.23;;;2.25;;
9420;SDS011;4749;51.398;5.466;2022-09-09T06:54:09;9.10;;;2.20;;
9420;SDS011;4749;51.398;5.466;2022-09-09T06:56:39;10.98;;;2.30;;
9420;SDS011;4749;51.398;5.466;2022-09-09T06:59:12;8.82;;;2.95;;
9420;SDS011;4749;51.398;5.466;2022-09-09T07:01:40;5.22;;;1.88;;
9420;SDS011;4749;51.398;5.466;2022-09-09T07:04:17;9.15;;;2.25;;
9420;SDS011;4749;51.398;5.466;2022-09-09T07:06:45;8.15;;;2.00;;
9420;SDS011;4749;51.398;5.466;2022-09-09T07:09:13;7.53;;;2.08;;
9420;SDS011;4749;51.398;5.466;2022-09-09T07:11:49;8.13;;;1.98;;
9420;SDS011;4749;51.398;5.466;2022-09-09T07:14:19;7.60;;;2.55;;
9420;SDS011;4749;51.398;5.466;2022-09-09T07:16:48;7.28;;;2.40;;
9420;SDS011;4749;51.398;5.466;2022-09-09T07:19:24;5.75;;;1.90;;
9420;SDS011;4749;51.398;5.466;2022-09-09T07:21:54;11.35;;;2.45;;
9420;SDS011;4749;51.398;5.466;2022-09-09T07:24:26;7.28;;;1.98;;
9420;SDS011;4749;51.398;5.466;2022-09-09T07:27:11;8.27;;;2.60;;
9420;SDS011;4749;51.398;5.466;2022-09-09T07:29:39;6.28;;;1.85;;
9420;SDS011;4749;51.398;5.466;2022-09-09T07:32:07;6.57;;;2.40;;
9420;SDS011;4749;51.398;5.466;2022-09-09T07:34:34;8.57;;;1.98;;
9420;SDS011;4749;51.398;5.466;2022-09-09T07:37:01;6.47;;;2.00;;
9420;SDS011;4749;51.398;5.466;2022-09-09T07:39:28;9.05;;;2.08;;
9420;SDS011;4749;51.398;5.466;2022-09-09T07:41:56;9.18;;;2.20;;
9420;SDS011;4749;51.398;5.466;2022-09-09T07:44:24;5.18;;;1.90;;
9420;SDS011;4749;51.398;5.466;2022-09-09T07:46:53;5.82;;;1.83;;
9420;SDS011;4749;51.398;5.466;2022-09-09T07:49:20;9.40;;;1.85;;
9420;SDS011;4749;51.398;5.466;2022-09-09T07:51:56;7.75;;;1.80;;
9420;SDS011;4749;51.398;5.466;2022-09-09T07:54:23;5.90;;;1.52;;
9420;SDS011;4749;51.398;5.466;2022-09-09T07:56:51;9.63;;;2.03;;
9420;SDS011;4749;51.398;5.466;2022-09-09T07:59:18;6.05;;;1.52;;
9420;SDS011;4749;51.398;5.466;2022-09-09T08:01:48;8.60;;;2.47;;
9420;SDS011;4749;51.398;5.466;2022-09-09T08:04:21;4.95;;;1.55;;
9420;SDS011;4749;51.398;5.466;2022-09-09T08:06:56;10.30;;;2.00;;
9420;SDS011;4749;51.398;5.466;2022-09-09T08:09:25;7.68;;;2.00;;
9420;SDS011;4749;51.398;5.466;2022-09-09T08:11:56;5.90;;;1.70;;
9420;SDS011;4749;51.398;5.466;2022-09-09T08:14:24;5.63;;;1.85;;
9420;SDS011;4749;51.398;5.466;2022-09-09T08:16:51;5.05;;;1.50;;
9420;SDS011;4749;51.398;5.466;2022-09-09T08:19:20;4.05;;;1.45;;
9420;SDS011;4749;51.398;5.466;2022-09-09T08:21:47;10.13;;;2.05;;
9420;SDS011;4749;51.398;5.466;2022-09-09T08:24:15;6.13;;;1.60;;
9420;SDS011;4749;51.398;5.466;2022-09-09T08:26:43;4.03;;;1.35;;
9420;SDS011;4749;51.398;5.466;2022-09-09T08:29:16;4.63;;;1.55;;
9420;SDS011;4749;51.398;5.466;2022-09-09T08:31:48;8.40;;;1.77;;
9420;SDS011;4749;51.398;5.466;2022-09-09T08:34:21;5.65;;;1.40;;
9420;SDS011;4749;51.398;5.466;2022-09-09T08:36:49;7.20;;;1.40;;
9420;SDS011;4749;51.398;5.466;2022-09-09T08:39:18;4.18;;;1.13;;
9420;SDS011;4749;51.398;5.466;2022-09-09T08:41:59;6.30;;;1.70;;
9420;SDS011;4749;51.398;5.466;2022-09-09T08:51:13;4.75;;;1.45;;
9420;SDS011;4749;51.398;5.466;2022-09-09T08:53:42;5.50;;;1.33;;
9420;SDS011;4749;51.398;5.466;2022-09-09T08:56:15;6.85;;;1.58;;
9420;SDS011;4749;51.398;5.466;2022-09-09T08:58:49;5.30;;;1.40;;
9420;SDS011;4749;51.398;5.466;2022-09-09T09:13:18;5.93;;;1.30;;
9420;SDS011;4749;51.398;5.466;2022-09-09T09:18:59;5.50;;;1.30;;
9420;SDS011;4749;51.398;5.466;2022-09-09T09:24:00;8.57;;;1.58;;
9420;SDS011;4749;51.398;5.466;2022-09-09T09:26:31;6.32;;;1.38;;
9420;SDS011;4749;51.398;5.466;2022-09-09T09:29:08;5.53;;;1.45;;
9420;SDS011;4749;51.398;5.466;2022-09-09T09:31:59;7.28;;;1.80;;
9420;SDS011;4749;51.398;5.466;2022-09-09T09:34:29;4.40;;;1.33;;
9420;SDS011;4749;51.398;5.466;2022-09-09T09:36:57;6.15;;;1.40;;
9420;SDS011;4749;51.398;5.466;2022-09-09T09:39:29;7.50;;;1.60;;
9420;SDS011;4749;51.398;5.466;2022-09-09T09:42:22;7.47;;;1.67;;
9420;SDS011;4749;51.398;5.466;2022-09-09T09:44:51;7.90;;;1.58;;
9420;SDS011;4749;51.398;5.466;2022-09-09T09:47:22;5.25;;;1.13;;
9420;SDS011;4749;51.398;5.466;2022-09-09T09:49:57;6.32;;;1.30;;
9420;SDS011;4749;51.398;5.466;2022-09-09T09:52:29;8.32;;;1.10;;
9420;SDS011;4749;51.398;5.466;2022-09-09T09:54:57;5.32;;;1.48;;
9420;SDS011;4749;51.398;5.466;2022-09-09T09:57:33;6.30;;;1.70;;
9420;SDS011;4749;51.398;5.466;2022-09-09T10:00:02;6.43;;;1.70;;
9420;SDS011;4749;51.398;5.466;2022-09-09T10:02:49;6.32;;;1.52;;
9420;SDS011;4749;51.398;5.466;2022-09-09T10:05:20;4.80;;;1.25;;
9420;SDS011;4749;51.398;5.466;2022-09-09T10:16:47;5.30;;;1.60;;
9420;SDS011;4749;51.398;5.466;2022-09-09T10:32:09;6.68;;;1.55;;
9420;SDS011;4749;51.398;5.466;2022-09-09T10:35:18;6.53;;;2.00;;
9420;SDS011;4749;51.398;5.466;2022-09-09T10:55:39;5.80;;;1.73;;
9420;SDS011;4749;51.398;5.466;2022-09-09T10:58:17;5.18;;;1.58;;
9420;SDS011;4749;51.398;5.466;2022-09-09T11:00:56;4.15;;;1.45;;
9420;SDS011;4749;51.398;5.466;2022-09-09T11:03:33;5.13;;;1.70;;
9420;SDS011;4749;51.398;5.466;2022-09-09T11:06:13;5.65;;;1.23;;
9420;SDS011;4749;51.398;5.466;2022-09-09T11:08:45;3.30;;;1.20;;
9420;SDS011;4749;51.398;5.466;2022-09-09T11:11:21;4.85;;;1.50;;
9420;SDS011;4749;51.398;5.466;2022-09-09T11:14:16;4.72;;;1.30;;
9420;SDS011;4749;51.398;5.466;2022-09-09T11:16:56;1.70;;;1.17;;
9420;SDS011;4749;51.398;5.466;2022-09-09T11:19:37;3.22;;;1.30;;
9420;SDS011;4749;51.398;5.466;2022-09-09T11:25:01;5.30;;;1.40;;
9420;SDS011;4749;51.398;5.466;2022-09-09T11:28:14;1.77;;;0.85;;
9420;SDS011;4749;51.398;5.466;2022-09-09T11:44:39;4.65;;;1.30;;
9420;SDS011;4749;51.398;5.466;2022-09-09T11:47:22;4.00;;;1.40;;
9420;SDS011;4749;51.398;5.466;2022-09-09T11:50:22;2.85;;;1.20;;
9420;SDS011;4749;51.398;5.466;2022-09-09T11:55:39;4.32;;;1.50;;
9420;SDS011;4749;51.398;5.466;2022-09-09T12:00:44;4.45;;;1.63;;
9420;SDS011;4749;51.398;5.466;2022-09-09T12:06:32;5.57;;;1.40;;
9420;SDS011;4749;51.398;5.466;2022-09-09T12:12:05;3.05;;;1.30;;
9420;SDS011;4749;51.398;5.466;2022-09-09T12:17:30;3.60;;;1.35;;
9420;SDS011;4749;51.398;5.466;2022-09-09T12:31:17;4.25;;;1.20;;
9420;SDS011;4749;51.398;5.466;2022-09-09T12:36:55;5.60;;;1.30;;
9420;SDS011;4749;51.398;5.466;2022-09-09T12:39:35;6.38;;;1.20;;
9420;SDS011;4749;51.398;5.466;2022-09-09T12:42:19;3.75;;;1.38;;
9420;SDS011;4749;51.398;5.466;2022-09-09T12:44:50;5.78;;;1.27;;
9420;SDS011;4749;51.398;5.466;2022-09-09T12:47:57;4.50;;;1.20;;
9420;SDS011;4749;51.398;5.466;2022-09-09T12:50:22;2.63;;;1.10;;
9420;SDS011;4749;51.398;5.466;2022-09-09T12:52:54;4.63;;;1.30;;
9420;SDS011;4749;51.398;5.466;2022-09-09T12:55:28;4.20;;;1.27;;
9420;SDS011;4749;51.398;5.466;2022-09-09T12:58:05;3.20;;;1.08;;
9420;SDS011;4749;51.398;5.466;2022-09-09T13:00:33;3.78;;;1.17;;
9420;SDS011;4749;51.398;5.466;2022-09-09T13:03:02;4.57;;;1.40;;
9420;SDS011;4749;51.398;5.466;2022-09-09T13:05:43;3.92;;;1.08;;
9420;SDS011;4749;51.398;5.466;2022-09-09T13:08:11;4.00;;;1.23;;
9420;SDS011;4749;51.398;5.466;2022-09-09T13:10:47;3.50;;;1.10;;
9420;SDS011;4749;51.398;5.466;2022-09-09T13:13:28;4.70;;;1.20;;
9420;SDS011;4749;51.398;5.466;2022-09-09T13:16:18;5.78;;;1.17;;
9420;SDS011;4749;51.398;5.466;2022-09-09T13:19:02;3.50;;;1.13;;
9420;SDS011;4749;51.398;5.466;2022-09-09T13:21:43;3.75;;;1.42;;
9420;SDS011;4749;51.398;5.466;2022-09-09T13:27:26;5.25;;;1.20;;
9420;SDS011;4749;51.398;5.466;2022-09-09T13:33:19;1.60;;;0.98;;
9420;SDS011;4749;51.398;5.466;2022-09-09T13:35:54;4.78;;;1.50;;
9420;SDS011;4749;51.398;5.466;2022-09-09T13:38:25;3.65;;;1.25;;
9420;SDS011;4749;51.398;5.466;2022-09-09T13:40:59;4.10;;;0.82;;
9420;SDS011;4749;51.398;5.466;2022-09-09T13:43:51;4.63;;;1.15;;
9420;SDS011;4749;51.398;5.466;2022-09-09T13:51:38;5.10;;;1.30;;
9420;SDS011;4749;51.398;5.466;2022-09-09T13:54:09;2.30;;;0.90;;
9420;SDS011;4749;51.398;5.466;2022-09-09T13:56:37;3.17;;;0.95;;
9420;SDS011;4749;51.398;5.466;2022-09-09T13:59:10;5.75;;;1.42;;
9420;SDS011;4749;51.398;5.466;2022-09-09T14:01:41;2.00;;;0.80;;
9420;SDS011;4749;51.398;5.466;2022-09-09T14:04:09;4.32;;;0.90;;
9420;SDS011;4749;51.398;5.466;2022-09-09T14:06:37;2.45;;;0.70;;
9420;SDS011;4749;51.398;5.466;2022-09-09T14:09:06;2.67;;;0.93;;
9420;SDS011;4749;51.398;5.466;2022-09-09T14:11:36;3.50;;;0.90;;
9420;SDS011;4749;51.398;5.466;2022-09-09T14:14:04;2.97;;;0.90;;
9420;SDS011;4749;51.398;5.466;2022-09-09T14:16:31;3.70;;;1.08;;
9420;SDS011;4749;51.398;5.466;2022-09-09T14:18:59;3.13;;;0.80;;
9420;SDS011;4749;51.398;5.466;2022-09-09T14:21:27;2.22;;;0.80;;
9420;SDS011;4749;51.398;5.466;2022-09-09T14:23:54;4.68;;;1.00;;
9420;SDS011;4749;51.398;5.466;2022-09-09T14:26:24;1.48;;;0.80;;
9420;SDS011;4749;51.398;5.466;2022-09-09T14:28:52;2.53;;;0.82;;
9420;SDS011;4749;51.398;5.466;2022-09-09T14:31:21;3.53;;;0.90;;
9420;SDS011;4749;51.398;5.466;2022-09-09T14:33:50;1.63;;;0.70;;
9420;SDS011;4749;51.398;5.466;2022-09-09T14:36:20;3.88;;;0.85;;
9420;SDS011;4749;51.398;5.466;2022-09-09T14:38:47;2.67;;;0.90;;
9420;SDS011;4749;51.398;5.466;2022-09-09T14:41:16;4.40;;;1.60;;
9420;SDS011;4749;51.398;5.466;2022-09-09T14:43:45;2.53;;;1.00;;
9420;SDS011;4749;51.398;5.466;2022-09-09T14:46:15;2.88;;;0.93;;
9420;SDS011;4749;51.398;5.466;2022-09-09T14:48:44;4.28;;;0.95;;
9420;SDS011;4749;51.398;5.466;2022-09-09T14:51:14;4.40;;;1.13;;
9420;SDS011;4749;51.398;5.466;2022-09-09T14:53:46;5.07;;;1.50;;
9420;SDS011;4749;51.398;5.466;2022-09-09T14:56:18;2.55;;;0.90;;
9420;SDS011;4749;51.398;5.466;2022-09-09T14:58:48;2.63;;;0.88;;
9420;SDS011;4749;51.398;5.466;2022-09-09T15:01:17;2.63;;;0.95;;
9420;SDS011;4749;51.398;5.466;2022-09-09T15:03:50;1.67;;;0.70;;
9420;SDS011;4749;51.398;5.466;2022-09-09T15:06:19;1.75;;;0.70;;
9420;SDS011;4749;51.398;5.466;2022-09-09T15:08:47;3.42;;;1.00;;
9420;SDS011;4749;51.398;5.466;2022-09-09T15:11:16;2.15;;;0.73;;
9420;SDS011;4749;51.398;5.466;2022-09-09T15:13:43;1.65;;;0.80;;
9420;SDS011;4749;51.398;5.466;2022-09-09T15:16:15;4.78;;;0.90;;
9420;SDS011;4749;51.398;5.466;2022-09-09T15:18:44;2.60;;;1.02;;
9420;SDS011;4749;51.398;5.466;2022-09-09T15:21:14;3.00;;;0.90;;
9420;SDS011;4749;51.398;5.466;2022-09-09T15:23:45;3.90;;;0.88;;
9420;SDS011;4749;51.398;5.466;2022-09-09T15:26:28;4.65;;;1.00;;
9420;SDS011;4749;51.398;5.466;2022-09-09T15:28:56;3.53;;;0.95;;
9420;SDS011;4749;51.398;5.466;2022-09-09T15:31:29;4.15;;;1.00;;
9420;SDS011;4749;51.398;5.466;2022-09-09T15:34:02;2.53;;;0.80;;
9420;SDS011;4749;51.398;5.466;2022-09-09T15:36:33;1.42;;;0.88;;
9420;SDS011;4749;51.398;5.466;2022-09-09T15:39:02;1.83;;;0.82;;
9420;SDS011;4749;51.398;5.466;2022-09-09T15:41:33;2.22;;;0.80;;
9420;SDS011;4749;51.398;5.466;2022-09-09T15:44:01;2.47;;;1.10;;
9420;SDS011;4749;51.398;5.466;2022-09-09T15:46:32;1.65;;;0.70;;
9420;SDS011;4749;51.398;5.466;2022-09-09T15:54:27;3.63;;;1.02;;
9420;SDS011;4749;51.398;5.466;2022-09-09T15:57:02;3.08;;;0.80;;
9420;SDS011;4749;51.398;5.466;2022-09-09T15:59:31;3.83;;;1.00;;
9420;SDS011;4749;51.398;5.466;2022-09-09T16:02:00;2.42;;;0.95;;
9420;SDS011;4749;51.398;5.466;2022-09-09T16:04:28;2.47;;;0.98;;
9420;SDS011;4749;51.398;5.466;2022-09-09T16:06:57;2.42;;;1.20;;
9420;SDS011;4749;51.398;5.466;2022-09-09T16:09:30;3.53;;;1.20;;
9420;SDS011;4749;51.398;5.466;2022-09-09T16:11:58;5.28;;;1.23;;
9420;SDS011;4749;51.398;5.466;2022-09-09T16:14:27;5.57;;;1.30;;
9420;SDS011;4749;51.398;5.466;2022-09-09T16:17:00;3.55;;;1.33;;
9420;SDS011;4749;51.398;5.466;2022-09-09T16:19:27;1.92;;;1.40;;
9420;SDS011;4749;51.398;5.466;2022-09-09T16:21:54;3.58;;;1.23;;
9420;SDS011;4749;51.398;5.466;2022-09-09T16:24:22;3.72;;;0.90;;
9420;SDS011;4749;51.398;5.466;2022-09-09T16:26:51;2.00;;;0.82;;
9420;SDS011;4749;51.398;5.466;2022-09-09T16:29:20;4.10;;;1.13;;
9420;SDS011;4749;51.398;5.466;2022-09-09T16:31:49;5.07;;;1.50;;
9420;SDS011;4749;51.398;5.466;2022-09-09T16:34:17;2.80;;;1.20;;
9420;SDS011;4749;51.398;5.466;2022-09-09T16:36:45;3.88;;;1.30;;
9420;SDS011;4749;51.398;5.466;2022-09-09T16:39:15;2.15;;;0.98;;
9420;SDS011;4749;51.398;5.466;2022-09-09T16:41:47;3.33;;;0.90;;
9420;SDS011;4749;51.398;5.466;2022-09-09T16:44:15;4.95;;;1.70;;
9420;SDS011;4749;51.398;5.466;2022-09-09T16:46:46;0.90;;;0.60;;
9420;SDS011;4749;51.398;5.466;2022-09-09T16:49:24;4.28;;;0.63;;
9420;SDS011;4749;51.398;5.466;2022-09-09T16:51:53;1.58;;;0.80;;
9420;SDS011;4749;51.398;5.466;2022-09-09T16:54:23;0.98;;;0.55;;
9420;SDS011;4749;51.398;5.466;2022-09-09T16:56:51;1.75;;;0.75;;
9420;SDS011;4749;51.398;5.466;2022-09-09T16:59:19;2.53;;;0.70;;
9420;SDS011;4749;51.398;5.466;2022-09-09T17:01:52;4.40;;;0.57;;
9420;SDS011;4749;51.398;5.466;2022-09-09T17:04:24;1.30;;;0.70;;
9420;SDS011;4749;51.398;5.466;2022-09-09T17:06:54;1.48;;;0.82;;
9420;SDS011;4749;51.398;5.466;2022-09-09T17:09:24;0.93;;;0.50;;
9420;SDS011;4749;51.398;5.466;2022-09-09T17:11:55;2.97;;;0.65;;
9420;SDS011;4749;51.398;5.466;2022-09-09T17:14:25;1.98;;;0.70;;
9420;SDS011;4749;51.398;5.466;2022-09-09T17:16:52;1.95;;;0.65;;
9420;SDS011;4749;51.398;5.466;2022-09-09T17:19:19;1.83;;;0.70;;
9420;SDS011;4749;51.398;5.466;2022-09-09T17:21:47;1.77;;;0.70;;
9420;SDS011;4749;51.398;5.466;2022-09-09T17:24:34;2.20;;;0.73;;
9420;SDS011;4749;51.398;5.466;2022-09-09T17:27:04;2.00;;;0.90;;
9420;SDS011;4749;51.398;5.466;2022-09-09T17:29:32;1.23;;;0.73;;
9420;SDS011;4749;51.398;5.466;2022-09-09T17:32:02;1.80;;;0.80;;
9420;SDS011;4749;51.398;5.466;2022-09-09T17:34:31;1.05;;;0.85;;
9420;SDS011;4749;51.398;5.466;2022-09-09T17:37:00;2.03;;;0.90;;
9420;SDS011;4749;51.398;5.466;2022-09-09T17:39:27;0.60;;;0.50;;
9420;SDS011;4749;51.398;5.466;2022-09-09T17:41:55;2.05;;;0.88;;
9420;SDS011;4749;51.398;5.466;2022-09-09T17:44:22;2.63;;;1.10;;
9420;SDS011;4749;51.398;5.466;2022-09-09T17:46:49;3.05;;;0.88;;
9420;SDS011;4749;51.398;5.466;2022-09-09T17:49:17;2.35;;;1.10;;
9420;SDS011;4749;51.398;5.466;2022-09-09T17:51:44;3.38;;;1.00;;
9420;SDS011;4749;51.398;5.466;2022-09-09T17:54:19;1.75;;;0.90;;
9420;SDS011;4749;51.398;5.466;2022-09-09T17:56:47;2.72;;;1.30;;
9420;SDS011;4749;51.398;5.466;2022-09-09T17:59:16;1.38;;;0.93;;
9420;SDS011;4749;51.398;5.466;2022-09-09T18:01:45;3.25;;;1.00;;
9420;SDS011;4749;51.398;5.466;2022-09-09T18:04:15;2.88;;;1.13;;
9420;SDS011;4749;51.398;5.466;2022-09-09T18:06:47;1.58;;;1.00;;
9420;SDS011;4749;51.398;5.466;2022-09-09T18:09:18;2.47;;;0.98;;
9420;SDS011;4749;51.398;5.466;2022-09-09T18:11:50;2.03;;;1.00;;
9420;SDS011;4749;51.398;5.466;2022-09-09T18:14:24;2.63;;;1.20;;
9420;SDS011;4749;51.398;5.466;2022-09-09T18:16:57;2.15;;;1.25;;
9420;SDS011;4749;51.398;5.466;2022-09-09T18:19:28;2.70;;;1.20;;
9420;SDS011;4749;51.398;5.466;2022-09-09T18:22:00;3.15;;;1.27;;
9420;SDS011;4749;51.398;5.466;2022-09-09T18:24:34;1.75;;;1.20;;
9420;SDS011;4749;51.398;5.466;2022-09-09T18:27:02;2.97;;;1.42;;
9420;SDS011;4749;51.398;5.466;2022-09-09T18:29:30;2.13;;;1.40;;
9420;SDS011;4749;51.398;5.466;2022-09-09T18:32:00;5.30;;;1.60;;